Wed, 16 Jun 2021 16:06:03 UTC

Information for RPM brotli-1.0.9-3.fc32.s390x.rpm

ID23452043
Namebrotli
Version1.0.9
Release3.fc32
Epoch
Archs390x
SummaryLossless compression algorithm
DescriptionBrotli is a generic-purpose lossless compression algorithm that compresses data using a combination of a modern variant of the LZ77 algorithm, Huffman coding and 2nd order context modeling, with a compression ratio comparable to the best currently available general-purpose compression methods. It is similar in speed with deflate but offers more dense compression.
Build Time2020-10-09 11:50:23 GMT
Size345,849
5b77193b6cc7a61462e65035c73bb1bd
LicenseMIT
Buildrootf32-build-23246774-2220371
Provides
brotli = 1.0.9-3.fc32
brotli(s390-64) = 1.0.9-3.fc32
Obsoletes No Obsoletes
Conflicts No Conflicts
Requires
libbrotli(s390-64) = 1.0.9-3.fc32
libc.so.6()(64bit)
libc.so.6(GLIBC_2.2)(64bit)
libc.so.6(GLIBC_2.3.4)(64bit)
libc.so.6(GLIBC_2.4)(64bit)
libm.so.6()(64bit)
libm.so.6(GLIBC_2.29)(64bit)
rpmlib(CompressedFileNames) <= 3.0.4-1
rpmlib(FileDigests) <= 4.6.0-1
rpmlib(PayloadFilesHavePrefix) <= 4.0-1
rpmlib(PayloadIsZstd) <= 5.4.18-1
rtld(GNU_HASH)
Recommends No Recommends
Suggests No Suggests
Supplements No Supplements
Enhances No Enhances
Files
1 through 4 of 4
Name ascending sort Size
/usr/bin/brotli829,528
/usr/lib/.build-id0
/usr/lib/.build-id/ee0
/usr/lib/.build-id/ee/3c6f5f79f34445f5b79ff3c3826e98335ad6eb26
Component of
Page:
1 through 50 of 190 >>>
Buildroot descending sort Created State
f32-build-27343830-3542374 2021-05-17 19:00:33 expired
f32-build-27343735-3542374 2021-05-17 18:53:52 expired
f32-build-27309076-3530213 2021-05-16 05:06:53 expired
f32-build-27219115-3500847 2021-05-11 14:48:38 expired
f32-build-27212714-3500847 2021-05-11 07:38:52 expired
f32-build-27203201-3493005 2021-05-10 16:10:54 expired
f32-build-27203121-3493005 2021-05-10 15:52:42 expired
f32-build-27158785-3485278 2021-05-08 18:13:31 expired
f32-build-27125481-3478836 2021-05-07 03:52:17 expired
f32-build-27014676-3450609 2021-05-01 21:18:17 expired
f32-build-26982537-3434247 2021-04-28 20:49:13 expired
f32-build-26921631-3406267 2021-04-24 11:57:59 expired
f32-build-26919105-3405987 2021-04-24 08:54:19 expired
f32-build-26917482-3404466 2021-04-24 05:10:07 expired
f32-build-26897498-3397016 2021-04-22 19:06:40 expired
f32-build-26897438-3397016 2021-04-22 18:56:21 expired
f32-build-26893359-3394595 2021-04-22 13:04:41 expired
f32-build-26865076-3382616 2021-04-20 23:38:08 expired
f32-build-26818526-3366269 2021-04-18 05:12:08 expired
f32-build-26748995-3346785 2021-04-14 18:45:28 expired
f32-build-26747074-3345503 2021-04-14 15:18:21 expired
f32-build-26693593-3328913 2021-04-11 17:27:22 expired
f32-build-26662939-3322463 2021-04-10 10:19:01 expired
f32-build-26634914-3308730 2021-04-08 16:18:04 expired
f32-build-26603321-3288136 2021-04-06 13:40:40 expired
f32-build-26519952-3254242 2021-04-01 11:20:12 expired
f32-build-26511123-3252760 2021-03-31 17:06:47 expired
f32-build-26510095-3251401 2021-03-31 15:02:07 expired
f32-build-26500109-3251401 2021-03-31 06:52:17 expired
f32-build-26485972-3247325 2021-03-30 14:09:15 expired
f32-build-26446682-3232708 2021-03-27 22:14:30 expired
f32-build-26430597-3230190 2021-03-26 20:47:47 expired
f32-build-26428183-3230190 2021-03-26 17:00:54 expired
f32-build-26425945-3228922 2021-03-26 13:12:43 expired
f32-build-26422579-3228623 2021-03-26 09:18:54 expired
f32-build-26405747-3212211 2021-03-24 09:58:39 expired
f32-build-26398373-3205383 2021-03-23 16:25:44 expired
f32-build-26395368-3200959 2021-03-23 08:39:55 expired
f32-build-26345610-3174845 2021-03-19 22:15:52 expired
f32-build-26309596-3150186 2021-03-16 19:01:50 expired
f32-build-26306163-3149332 2021-03-16 11:58:28 expired
f32-build-26300617-3145312 2021-03-15 23:33:13 expired
f32-build-26275567-3138155 2021-03-14 18:50:39 expired
f32-build-26267847-3138155 2021-03-14 13:02:29 expired
f32-build-26244702-3134257 2021-03-13 16:58:16 expired
f32-build-26244701-3134257 2021-03-13 16:58:12 expired
f32-build-26244691-3134257 2021-03-13 16:57:53 expired
f32-build-26225677-3134257 2021-03-12 21:19:36 expired
f32-build-26207540-3127497 2021-03-11 13:46:06 expired
f32-build-26120203-3089966 2021-03-06 19:10:12 expired